Time;durP1;ratioP1;P1;durP2;ratioP2;P2;SDS_P1;SDS_P2;PMS_P1;PMS_P2;Temp;Humidity;BMP_temperature;BMP_pressure;BME280_temperature;BME280_humidity;BME280_pressure;Samples;Min_cycle;Max_cycle;Signal;HPM_P1;HPM_P2
2021/09/20 00:00:41;;;;;;;1.90;1.80;;;;;;;20.54;71.39;100456.41;;;;-59
2021/09/20 00:03:41;;;;;;;2.00;1.90;;;;;;;20.54;71.40;100455.69;;;;-66
2021/09/20 00:06:41;;;;;;;2.06;1.87;;;;;;;20.53;71.42;100458.30;;;;-55
2021/09/20 00:09:41;;;;;;;1.80;1.70;;;;;;;20.53;71.41;100460.42;;;;-55
2021/09/20 00:12:41;;;;;;;2.05;1.93;;;;;;;20.53;71.40;100461.81;;;;-59
2021/09/20 00:15:41;;;;;;;1.97;1.84;;;;;;;20.52;71.42;100459.59;;;;-58
2021/09/20 00:18:41;;;;;;;1.78;1.68;;;;;;;20.52;71.42;100468.30;;;;-59
2021/09/20 00:21:41;;;;;;;1.78;1.68;;;;;;;20.52;71.38;100474.59;;;;-59
2021/09/20 00:24:41;;;;;;;2.03;1.83;;;;;;;20.52;71.43;100476.36;;;;-67
2021/09/20 00:27:41;;;;;;;2.27;1.88;;;;;;;20.52;71.40;100474.00;;;;-55
2021/09/20 00:30:41;;;;;;;2.19;1.99;;;;;;;20.51;71.44;100474.02;;;;-64
2021/09/20 00:33:41;;;;;;;2.04;1.94;;;;;;;20.51;71.40;100475.64;;;;-67
2021/09/20 00:36:41;;;;;;;1.79;1.69;;;;;;;20.50;71.43;100475.73;;;;-59
2021/09/20 00:39:41;;;;;;;1.91;1.81;;;;;;;20.50;71.42;100478.96;;;;-58
2021/09/20 00:42:41;;;;;;;1.79;1.69;;;;;;;20.50;71.40;100479.53;;;;-66
2021/09/20 00:45:41;;;;;;;1.98;1.88;;;;;;;20.50;71.39;100475.89;;;;-58
2021/09/20 00:48:41;;;;;;;1.85;1.75;;;;;;;20.50;71.42;100480.27;;;;-59
2021/09/20 00:51:41;;;;;;;1.81;1.71;;;;;;;20.49;71.43;100479.38;;;;-67
2021/09/20 00:54:41;;;;;;;1.97;1.83;;;;;;;20.48;71.44;100483.45;;;;-58
2021/09/20 00:57:41;;;;;;;1.91;1.81;;;;;;;20.48;71.45;100482.08;;;;-59
2021/09/20 01:00:41;;;;;;;2.61;1.85;;;;;;;20.48;71.47;100483.43;;;;-59
2021/09/20 01:03:41;;;;;;;2.08;1.98;;;;;;;20.48;71.41;100484.89;;;;-59
2021/09/20 01:06:41;;;;;;;1.97;1.86;;;;;;;20.47;71.46;100488.24;;;;-58
2021/09/20 01:09:41;;;;;;;2.37;2.13;;;;;;;20.47;71.45;100487.27;;;;-55
2021/09/20 01:12:41;;;;;;;2.15;1.99;;;;;;;20.47;71.49;100487.35;;;;-52
2021/09/20 01:15:41;;;;;;;2.00;1.90;;;;;;;20.46;71.47;100486.87;;;;-59
2021/09/20 01:18:41;;;;;;;1.81;1.69;;;;;;;20.46;71.47;100488.42;;;;-59
2021/09/20 01:21:41;;;;;;;2.11;1.91;;;;;;;20.46;71.44;100492.05;;;;-58
2021/09/20 01:24:41;;;;;;;2.01;1.90;;;;;;;20.46;71.44;100491.56;;;;-53
2021/09/20 01:27:41;;;;;;;2.02;1.92;;;;;;;20.46;71.46;100489.86;;;;-59
2021/09/20 01:30:41;;;;;;;1.90;1.80;;;;;;;20.45;71.50;100485.72;;;;-59
2021/09/20 01:33:58;;;;;;;1.86;1.76;;;;;;;20.45;71.45;100495.23;;;;-53
2021/09/20 01:36:41;;;;;;;2.00;1.90;;;;;;;20.45;71.44;100494.59;;;;-59
2021/09/20 01:39:41;;;;;;;1.90;1.80;;;;;;;20.45;71.43;100491.50;;;;-59
2021/09/20 01:42:41;;;;;;;2.02;1.92;;;;;;;20.45;71.45;100493.20;;;;-59
2021/09/20 01:45:41;;;;;;;2.26;2.07;;;;;;;20.43;71.47;100494.17;;;;-55
2021/09/20 01:48:41;;;;;;;2.03;1.93;;;;;;;20.44;71.46;100497.25;;;;-53
2021/09/20 01:51:41;;;;;;;2.13;1.93;;;;;;;20.43;71.49;100498.56;;;;-53
2021/09/20 01:54:41;;;;;;;2.04;1.90;;;;;;;20.44;71.45;100504.02;;;;-53
2021/09/20 01:57:41;;;;;;;2.05;1.95;;;;;;;20.43;71.47;100501.17;;;;-53
2021/09/20 02:00:46;;;;;;;2.01;1.91;;;;;;;20.44;71.46;100500.27;;;;-53
2021/09/20 02:03:41;;;;;;;1.95;1.85;;;;;;;20.42;71.48;100495.24;;;;-65
2021/09/20 02:06:41;;;;;;;2.13;2.03;;;;;;;20.42;71.46;100499.23;;;;-59
2021/09/20 02:09:41;;;;;;;1.99;1.88;;;;;;;20.43;71.44;100500.94;;;;-53
2021/09/20 02:12:41;;;;;;;2.42;2.00;;;;;;;20.42;71.46;100501.56;;;;-67
2021/09/20 02:15:41;;;;;;;2.27;2.07;;;;;;;20.42;71.50;100500.78;;;;-68
2021/09/20 02:18:41;;;;;;;2.23;2.03;;;;;;;20.42;71.43;100500.94;;;;-65
2021/09/20 02:21:41;;;;;;;2.21;1.99;;;;;;;20.42;71.44;100501.97;;;;-55
2021/09/20 02:24:41;;;;;;;2.15;1.97;;;;;;;20.41;71.45;100500.52;;;;-53
2021/09/20 02:27:41;;;;;;;1.98;1.88;;;;;;;20.42;71.45;100499.29;;;;-59
2021/09/20 02:30:41;;;;;;;2.00;1.90;;;;;;;20.41;71.48;100499.70;;;;-58
2021/09/20 02:33:41;;;;;;;2.00;1.90;;;;;;;20.40;71.48;100498.73;;;;-58
2021/09/20 02:36:41;;;;;;;2.19;1.99;;;;;;;20.40;71.44;100496.54;;;;-54
2021/09/20 02:39:41;;;;;;;2.27;2.10;;;;;;;20.40;71.48;100494.16;;;;-54
2021/09/20 02:42:41;;;;;;;2.28;2.09;;;;;;;20.40;71.43;100491.22;;;;-65
2021/09/20 02:45:41;;;;;;;1.91;1.81;;;;;;;20.40;71.45;100492.14;;;;-58
2021/09/20 02:48:41;;;;;;;1.98;1.88;;;;;;;20.39;71.46;100491.80;;;;-53
2021/09/20 02:51:41;;;;;;;2.10;2.00;;;;;;;20.39;71.43;100495.87;;;;-65
2021/09/20 02:54:41;;;;;;;2.25;2.05;;;;;;;20.38;71.49;100496.61;;;;-58
2021/09/20 02:57:41;;;;;;;2.20;2.00;;;;;;;20.38;71.48;100497.42;;;;-59
2021/09/20 03:00:41;;;;;;;2.27;2.07;;;;;;;20.38;71.46;100500.27;;;;-66
2021/09/20 03:03:41;;;;;;;2.11;1.91;;;;;;;20.38;71.44;100497.09;;;;-66
2021/09/20 03:06:45;;;;;;;2.23;2.09;;;;;;;20.37;71.52;100497.00;;;;-55
2021/09/20 03:09:41;;;;;;;2.25;2.04;;;;;;;20.37;71.50;100497.73;;;;-58
2021/09/20 03:12:41;;;;;;;2.12;2.02;;;;;;;20.37;71.43;100494.47;;;;-58
2021/09/20 03:15:41;;;;;;;2.00;1.90;;;;;;;20.37;71.46;100497.66;;;;-58
2021/09/20 03:18:41;;;;;;;2.27;2.09;;;;;;;20.37;71.46;100497.25;;;;-59
2021/09/20 03:21:41;;;;;;;2.19;1.96;;;;;;;20.36;71.50;100498.80;;;;-65
2021/09/20 03:24:40;;;;;;;2.35;2.15;;;;;;;20.36;71.47;100502.60;;;;-59
2021/09/20 03:27:41;;;;;;;2.33;2.13;;;;;;;20.35;71.47;100500.33;;;;-59
2021/09/20 03:30:43;;;;;;;2.23;2.10;;;;;;;20.36;71.47;100502.93;;;;-55
2021/09/20 03:33:41;;;;;;;2.20;2.05;;;;;;;20.36;71.44;100506.67;;;;-55
2021/09/20 03:36:41;;;;;;;2.30;2.10;;;;;;;20.36;71.46;100505.20;;;;-58
2021/09/20 03:39:41;;;;;;;2.31;2.11;;;;;;;20.35;71.47;100506.03;;;;-68
2021/09/20 03:42:41;;;;;;;2.41;2.21;;;;;;;20.35;71.46;100509.37;;;;-59
2021/09/20 03:45:41;;;;;;;2.48;2.28;;;;;;;20.35;71.50;100511.08;;;;-57
2021/09/20 03:48:41;;;;;;;2.73;1.95;;;;;;;20.35;71.45;100514.41;;;;-68
2021/09/20 03:51:41;;;;;;;2.21;2.03;;;;;;;20.34;71.46;100514.17;;;;-64
2021/09/20 03:54:41;;;;;;;2.37;2.19;;;;;;;20.35;71.43;100513.27;;;;-63
2021/09/20 03:57:42;;;;;;;2.33;2.13;;;;;;;20.34;71.43;100512.55;;;;-53
2021/09/20 04:00:41;;;;;;;2.40;2.20;;;;;;;20.34;71.43;100514.34;;;;-58
2021/09/20 04:03:41;;;;;;;2.47;2.27;;;;;;;20.34;71.45;100515.48;;;;-59
2021/09/20 04:06:41;;;;;;;2.51;2.03;;;;;;;20.33;71.46;100519.94;;;;-69
2021/09/20 04:09:41;;;;;;;2.37;2.18;;;;;;;20.33;71.45;100520.59;;;;-67
2021/09/20 04:12:41;;;;;;;2.31;2.11;;;;;;;20.33;71.46;100521.89;;;;-67
2021/09/20 04:15:41;;;;;;;2.43;2.23;;;;;;;20.32;71.43;100523.52;;;;-58
2021/09/20 04:18:41;;;;;;;2.42;2.22;;;;;;;20.32;71.44;100522.39;;;;-65
2021/09/20 04:21:41;;;;;;;2.23;2.09;;;;;;;20.32;71.43;100523.77;;;;-58
2021/09/20 04:24:41;;;;;;;2.46;2.26;;;;;;;20.32;71.41;100522.31;;;;-58
2021/09/20 04:27:41;;;;;;;2.50;2.30;;;;;;;20.32;71.43;100524.51;;;;-53
2021/09/20 04:30:44;;;;;;;2.44;2.24;;;;;;;20.33;71.35;100527.52;;;;-55
2021/09/20 04:33:41;;;;;;;2.24;2.10;;;;;;;20.32;71.39;100526.87;;;;-58
2021/09/20 04:38:03;;;;;;;2.41;2.21;;;;;;;20.32;71.34;100528.98;;;;-53
2021/09/20 04:40:41;;;;;;;2.50;2.30;;;;;;;20.32;71.32;100530.28;;;;-67
2021/09/20 04:43:41;;;;;;;2.50;2.30;;;;;;;20.32;71.29;100532.65;;;;-55
2021/09/20 04:46:41;;;;;;;2.47;2.27;;;;;;;20.31;71.32;100537.91;;;;-58
2021/09/20 04:49:41;;;;;;;2.65;2.45;;;;;;;20.32;71.33;100543.31;;;;-58
2021/09/20 04:52:41;;;;;;;2.50;2.30;;;;;;;20.31;71.34;100542.80;;;;-58
2021/09/20 04:55:41;;;;;;;2.30;2.11;;;;;;;20.30;71.35;100547.20;;;;-58
2021/09/20 04:58:43;;;;;;;2.48;2.28;;;;;;;20.30;71.35;100548.02;;;;-52
2021/09/20 05:07:42;;;;;;;2.66;2.46;;;;;;;20.28;71.40;100559.64;;;;-54
2021/09/20 05:10:42;;;;;;;2.62;2.42;;;;;;;20.28;71.36;100558.51;;;;-55
2021/09/20 05:13:41;;;;;;;2.60;2.40;;;;;;;20.28;71.39;100556.71;;;;-58
2021/09/20 05:16:41;;;;;;;2.48;2.28;;;;;;;20.29;71.33;100563.22;;;;-55
2021/09/20 05:19:41;;;;;;;2.61;2.41;;;;;;;20.29;71.35;100566.80;;;;-56
2021/09/20 05:22:41;;;;;;;5.08;4.55;;;;;;;20.29;65.84;100567.45;;;;-57
2021/09/20 05:25:41;;;;;;;7.68;6.57;;;;;;;20.11;60.82;100571.45;;;;-58
2021/09/20 05:28:41;;;;;;;9.60;6.69;;;;;;;19.97;60.30;100567.38;;;;-54
2021/09/20 05:31:41;;;;;;;7.29;6.59;;;;;;;19.82;59.89;100561.33;;;;-54
2021/09/20 05:34:41;;;;;;;7.60;6.85;;;;;;;19.66;59.74;100564.45;;;;-64
2021/09/20 05:37:41;;;;;;;15.06;6.85;;;;;;;19.49;60.55;100565.55;;;;-53
2021/09/20 05:40:41;;;;;;;10.81;6.59;;;;;;;19.51;62.37;100570.52;;;;-58
2021/09/20 05:43:41;;;;;;;8.90;6.39;;;;;;;19.58;63.30;100567.64;;;;-61
2021/09/20 05:46:41;;;;;;;9.30;6.19;;;;;;;19.65;63.66;100568.17;;;;-51
2021/09/20 05:49:41;;;;;;;8.03;6.24;;;;;;;19.69;64.68;100567.71;;;;-53
2021/09/20 05:52:41;;;;;;;9.90;6.50;;;;;;;19.73;64.85;100567.70;;;;-53
2021/09/20 05:55:41;;;;;;;8.70;6.01;;;;;;;19.76;65.09;100569.28;;;;-53
2021/09/20 05:58:41;;;;;;;7.49;6.55;;;;;;;19.78;65.50;100570.67;;;;-55
2021/09/20 06:01:41;;;;;;;7.08;5.87;;;;;;;19.81;65.46;100569.63;;;;-61
2021/09/20 06:04:41;;;;;;;7.36;6.12;;;;;;;19.82;66.11;100576.23;;;;-62
2021/09/20 06:07:41;;;;;;;6.90;5.86;;;;;;;19.83;66.07;100578.66;;;;-62
2021/09/20 06:10:41;;;;;;;7.15;5.72;;;;;;;19.84;66.36;100579.42;;;;-62
2021/09/20 06:13:41;;;;;;;6.93;5.87;;;;;;;19.84;66.52;100582.09;;;;-51
2021/09/20 06:16:41;;;;;;;6.67;5.96;;;;;;;19.85;66.82;100579.73;;;;-51
2021/09/20 06:19:41;;;;;;;6.74;6.06;;;;;;;19.86;66.97;100581.22;;;;-51
2021/09/20 06:22:41;;;;;;;6.71;6.08;;;;;;;19.87;67.11;100584.95;;;;-55
2021/09/20 06:25:42;;;;;;;6.44;5.73;;;;;;;19.87;67.21;100583.73;;;;-54
2021/09/20 06:28:41;;;;;;;6.62;6.02;;;;;;;19.88;67.38;100581.56;;;;-54
2021/09/20 06:31:41;;;;;;;6.53;5.89;;;;;;;19.87;67.52;100580.89;;;;-53
2021/09/20 06:34:41;;;;;;;7.10;5.93;;;;;;;19.88;67.55;100586.44;;;;-62
2021/09/20 06:37:41;;;;;;;6.46;5.86;;;;;;;19.89;67.69;100586.59;;;;-54
2021/09/20 06:40:41;;;;;;;6.29;5.55;;;;;;;19.89;67.86;100585.78;;;;-61
2021/09/20 06:43:41;;;;;;;6.83;5.66;;;;;;;19.89;67.91;100585.78;;;;-51
2021/09/20 06:46:41;;;;;;;6.03;5.47;;;;;;;19.89;67.95;100585.45;;;;-51
2021/09/20 06:49:41;;;;;;;6.43;5.56;;;;;;;19.91;67.99;100593.61;;;;-51
2021/09/20 06:52:41;;;;;;;6.53;5.84;;;;;;;19.90;68.12;100599.47;;;;-51
2021/09/20 06:55:41;;;;;;;6.12;5.49;;;;;;;19.91;68.14;100598.57;;;;-51
2021/09/20 06:58:41;;;;;;;5.88;5.36;;;;;;;19.92;68.24;100595.71;;;;-51
2021/09/20 07:01:41;;;;;;;6.14;5.55;;;;;;;19.92;68.26;100594.73;;;;-51
2021/09/20 07:04:41;;;;;;;6.30;5.70;;;;;;;19.92;68.29;100600.02;;;;-55
2021/09/20 07:07:41;;;;;;;6.12;5.56;;;;;;;19.92;68.39;100607.78;;;;-55
2021/09/20 07:10:41;;;;;;;6.13;5.32;;;;;;;19.93;68.43;100611.03;;;;-54
2021/09/20 07:13:41;;;;;;;6.01;5.40;;;;;;;19.93;68.52;100614.92;;;;-55
2021/09/20 07:16:41;;;;;;;6.01;5.46;;;;;;;19.94;68.55;100616.63;;;;-54
2021/09/20 07:19:41;;;;;;;6.19;5.59;;;;;;;19.94;68.55;100614.35;;;;-55
2021/09/20 07:22:43;;;;;;;6.01;5.35;;;;;;;19.94;68.65;100615.90;;;;-54
2021/09/20 07:25:41;;;;;;;5.77;5.27;;;;;;;19.96;68.60;100618.59;;;;-55
2021/09/20 07:28:41;;;;;;;5.97;5.44;;;;;;;19.96;68.68;100621.20;;;;-55
2021/09/20 07:31:41;;;;;;;5.57;5.07;;;;;;;19.95;68.75;100621.70;;;;-55
2021/09/20 07:34:41;;;;;;;5.93;5.40;;;;;;;19.96;68.78;100624.94;;;;-55
2021/09/20 07:37:41;;;;;;;6.01;5.38;;;;;;;19.95;68.78;100629.34;;;;-55
2021/09/20 07:40:41;;;;;;;5.73;5.10;;;;;;;19.96;68.84;100630.96;;;;-55
2021/09/20 07:43:44;;;;;;;5.88;5.32;;;;;;;19.96;68.84;100625.27;;;;-55
2021/09/20 07:46:41;;;;;;;5.82;5.13;;;;;;;19.96;68.85;100630.16;;;;-55
2021/09/20 07:49:41;;;;;;;5.87;5.35;;;;;;;19.96;68.93;100629.98;;;;-56
2021/09/20 07:52:41;;;;;;;5.58;5.08;;;;;;;19.96;68.93;100636.73;;;;-55
2021/09/20 07:55:41;;;;;;;5.34;4.84;;;;;;;19.96;68.99;100641.97;;;;-55
2021/09/20 07:58:41;;;;;;;5.77;5.07;;;;;;;19.99;68.94;100640.59;;;;-57
2021/09/20 08:01:41;;;;;;;5.91;5.30;;;;;;;20.02;68.92;100639.23;;;;-51
2021/09/20 08:04:41;;;;;;;5.93;5.33;;;;;;;20.04;68.99;100642.82;;;;-60
2021/09/20 08:07:41;;;;;;;5.73;5.21;;;;;;;20.06;69.04;100643.00;;;;-67
2021/09/20 08:10:41;;;;;;;5.92;5.38;;;;;;;20.07;69.15;100642.12;;;;-64
2021/09/20 08:13:41;;;;;;;5.74;5.19;;;;;;;20.08;69.33;100641.63;;;;-49
2021/09/20 08:16:41;;;;;;;5.79;5.27;;;;;;;20.11;69.38;100644.27;;;;-57
2021/09/20 08:19:41;;;;;;;5.66;5.03;;;;;;;20.12;69.36;100644.26;;;;-54
2021/09/20 08:22:41;;;;;;;5.69;5.19;;;;;;;20.14;69.42;100646.95;;;;-51
2021/09/20 08:25:41;;;;;;;5.23;4.79;;;;;;;20.16;69.52;100651.61;;;;-51
2021/09/20 08:28:41;;;;;;;5.28;4.81;;;;;;;20.17;69.54;100654.64;;;;-60
2021/09/20 08:31:41;;;;;;;6.59;5.18;;;;;;;20.19;69.64;100656.85;;;;-59
2021/09/20 08:34:41;;;;;;;5.55;5.04;;;;;;;20.20;69.61;100657.58;;;;-59
2021/09/20 08:37:41;;;;;;;7.23;4.99;;;;;;;20.22;69.60;100664.11;;;;-54
2021/09/20 08:40:41;;;;;;;5.38;4.90;;;;;;;20.22;69.68;100662.80;;;;-59
2021/09/20 08:43:41;;;;;;;5.44;4.94;;;;;;;20.24;69.70;100668.27;;;;-61
2021/09/20 08:46:41;;;;;;;5.17;4.73;;;;;;;20.25;69.74;100667.04;;;;-52
2021/09/20 08:49:41;;;;;;;5.42;4.92;;;;;;;20.26;69.74;100666.16;;;;-53
2021/09/20 08:52:41;;;;;;;5.27;4.77;;;;;;;20.27;69.72;100670.58;;;;-54
2021/09/20 08:55:41;;;;;;;4.95;4.55;;;;;;;20.28;69.73;100670.48;;;;-54
2021/09/20 08:58:41;;;;;;;5.26;4.73;;;;;;;20.30;69.77;100679.53;;;;-50
2021/09/20 09:01:42;;;;;;;5.77;4.73;;;;;;;20.31;69.82;100683.03;;;;-53
2021/09/20 09:04:41;;;;;;;4.94;4.54;;;;;;;20.31;69.77;100682.46;;;;-51
2021/09/20 09:07:41;;;;;;;5.07;4.59;;;;;;;20.33;69.78;100683.12;;;;-53
2021/09/20 09:10:41;;;;;;;5.43;4.86;;;;;;;20.34;69.79;100684.04;;;;-54
2021/09/20 09:13:41;;;;;;;5.49;4.57;;;;;;;20.35;69.74;100684.52;;;;-56
2021/09/20 09:16:41;;;;;;;4.85;4.40;;;;;;;20.36;69.87;100687.04;;;;-58
2021/09/20 09:19:41;;;;;;;5.21;4.32;;;;;;;20.37;69.83;100691.70;;;;-57
2021/09/20 09:22:41;;;;;;;4.87;4.47;;;;;;;20.38;69.84;100691.80;;;;-63
2021/09/20 09:25:41;;;;;;;5.10;4.47;;;;;;;20.39;69.89;100696.03;;;;-59
2021/09/20 09:28:41;;;;;;;4.90;4.47;;;;;;;20.39;69.92;100697.81;;;;-61
2021/09/20 09:31:41;;;;;;;4.75;4.29;;;;;;;20.41;69.97;100693.44;;;;-55
2021/09/20 09:34:42;;;;;;;4.68;4.25;;;;;;;20.41;70.01;100695.06;;;;-66
2021/09/20 09:37:41;;;;;;;5.84;4.37;;;;;;;20.41;70.01;100696.04;;;;-59
2021/09/20 09:40:41;;;;;;;5.02;4.42;;;;;;;20.41;70.03;100695.95;;;;-59
2021/09/20 09:43:41;;;;;;;4.83;4.35;;;;;;;20.41;69.97;100699.78;;;;-59
2021/09/20 09:46:41;;;;;;;4.68;4.28;;;;;;;20.40;69.89;100701.39;;;;-59
2021/09/20 09:49:41;;;;;;;7.73;4.21;;;;;;;20.39;69.88;100697.81;;;;-59
2021/09/20 09:52:41;;;;;;;4.49;4.09;;;;;;;20.39;69.80;100701.56;;;;-59
2021/09/20 09:55:41;;;;;;;7.03;4.17;;;;;;;20.38;69.88;100694.41;;;;-59
2021/09/20 09:58:41;;;;;;;4.69;4.29;;;;;;;20.38;69.84;100694.00;;;;-58
2021/09/20 10:01:42;;;;;;;4.91;4.35;;;;;;;20.37;69.85;100696.01;;;;-59
2021/09/20 10:04:41;;;;;;;5.64;4.19;;;;;;;20.38;69.83;100695.95;;;;-58
2021/09/20 10:07:41;;;;;;;4.61;4.21;;;;;;;20.37;69.83;100696.74;;;;-58
2021/09/20 10:10:41;;;;;;;4.55;4.15;;;;;;;20.37;69.85;100690.39;;;;-59
2021/09/20 10:13:41;;;;;;;6.51;4.40;;;;;;;20.37;69.80;100685.67;;;;-58
2021/09/20 10:16:41;;;;;;;4.45;4.05;;;;;;;20.36;69.75;100679.66;;;;-58
2021/09/20 10:19:41;;;;;;;4.57;4.17;;;;;;;20.36;69.77;100682.67;;;;-53
2021/09/20 10:22:41;;;;;;;4.53;4.09;;;;;;;20.36;69.77;100686.58;;;;-53
2021/09/20 10:25:41;;;;;;;4.59;4.19;;;;;;;20.36;69.77;100687.31;;;;-53
2021/09/20 10:28:41;;;;;;;4.47;4.07;;;;;;;20.35;69.73;100689.56;;;;-58
2021/09/20 10:31:41;;;;;;;4.48;4.08;;;;;;;20.36;69.75;100692.91;;;;-58
2021/09/20 10:34:41;;;;;;;4.21;3.89;;;;;;;20.36;69.77;100691.55;;;;-59
2021/09/20 10:37:41;;;;;;;4.59;4.15;;;;;;;20.36;69.76;100685.11;;;;-58
2021/09/20 10:40:41;;;;;;;4.89;4.14;;;;;;;20.36;69.72;100689.67;;;;-58
2021/09/20 10:43:41;;;;;;;4.18;3.87;;;;;;;20.36;69.76;100690.78;;;;-58
2021/09/20 10:46:41;;;;;;;4.51;4.05;;;;;;;20.36;69.74;100691.79;;;;-58
2021/09/20 10:49:41;;;;;;;4.35;3.95;;;;;;;20.36;69.78;100695.53;;;;-58
2021/09/20 10:52:41;;;;;;;4.66;4.21;;;;;;;20.36;69.75;100692.58;;;;-59
2021/09/20 10:55:41;;;;;;;4.14;3.84;;;;;;;20.36;69.75;100697.41;;;;-59
2021/09/20 10:58:41;;;;;;;4.53;4.13;;;;;;;20.36;69.76;100695.78;;;;-58
2021/09/20 11:01:41;;;;;;;4.48;4.08;;;;;;;20.35;69.73;100698.03;;;;-59
2021/09/20 11:04:41;;;;;;;4.45;4.05;;;;;;;20.35;69.80;100696.97;;;;-58
2021/09/20 11:07:41;;;;;;;4.15;3.83;;;;;;;20.35;69.78;100698.20;;;;-58
2021/09/20 11:10:41;;;;;;;4.35;3.95;;;;;;;20.35;69.76;100700.15;;;;-58
2021/09/20 11:13:41;;;;;;;4.25;3.85;;;;;;;20.35;69.79;100699.42;;;;-58
2021/09/20 11:16:41;;;;;;;4.23;3.85;;;;;;;20.35;69.74;100705.28;;;;-59
2021/09/20 11:19:41;;;;;;;4.28;3.67;;;;;;;20.35;69.73;100702.75;;;;-58
2021/09/20 11:22:41;;;;;;;3.94;3.64;;;;;;;20.35;69.78;100702.51;;;;-53
2021/09/20 11:25:41;;;;;;;4.63;4.23;;;;;;;20.35;69.79;100708.70;;;;-53
2021/09/20 11:28:41;;;;;;;5.08;3.96;;;;;;;20.35;69.80;100708.29;;;;-53
2021/09/20 11:31:41;;;;;;;4.32;3.92;;;;;;;20.35;69.78;100708.86;;;;-53
2021/09/20 11:34:42;;;;;;;4.07;3.74;;;;;;;20.35;69.78;100708.94;;;;-53
2021/09/20 11:37:41;;;;;;;4.11;3.81;;;;;;;20.34;69.76;100707.64;;;;-53
2021/09/20 11:40:41;;;;;;;4.30;3.91;;;;;;;20.35;69.76;100710.65;;;;-53
2021/09/20 11:43:41;;;;;;;4.21;3.81;;;;;;;20.34;69.77;100712.13;;;;-53
2021/09/20 11:46:41;;;;;;;4.03;3.69;;;;;;;20.34;69.80;100710.91;;;;-53
2021/09/20 11:49:41;;;;;;;4.02;3.66;;;;;;;20.34;69.77;100714.48;;;;-57
2021/09/20 11:52:41;;;;;;;4.15;3.80;;;;;;;20.35;69.81;100717.98;;;;-58
2021/09/20 11:55:41;;;;;;;4.35;3.95;;;;;;;20.34;69.80;100712.94;;;;-57
2021/09/20 11:58:41;;;;;;;3.89;3.59;;;;;;;20.34;69.77;100712.86;;;;-58
2021/09/20 12:01:42;;;;;;;3.98;3.68;;;;;;;20.34;69.86;100714.08;;;;-58
2021/09/20 12:04:41;;;;;;;3.96;3.65;;;;;;;20.35;69.81;100716.19;;;;-57
2021/09/20 12:07:45;;;;;;;3.73;3.43;;;;;;;20.34;69.78;100718.64;;;;-57
2021/09/20 12:10:41;;;;;;;3.79;3.49;;;;;;;20.34;69.81;100718.87;;;;-57
2021/09/20 12:13:41;;;;;;;3.87;3.56;;;;;;;20.35;69.79;100718.63;;;;-58
2021/09/20 12:16:41;;;;;;;7.31;3.47;;;;;;;20.34;69.84;100717.98;;;;-58
2021/09/20 12:19:41;;;;;;;4.13;3.75;;;;;;;20.34;69.85;100721.32;;;;-58
2021/09/20 12:22:41;;;;;;;4.17;3.77;;;;;;;20.35;69.78;100716.35;;;;-59
2021/09/20 12:25:41;;;;;;;10.78;3.73;;;;;;;20.35;69.81;100712.69;;;;-51
2021/09/20 12:28:41;;;;;;;4.17;3.57;;;;;;;20.37;69.80;100712.62;;;;-58
2021/09/20 12:31:41;;;;;;;4.33;3.90;;;;;;;20.38;69.87;100711.02;;;;-55
2021/09/20 12:34:41;;;;;;;3.82;3.52;;;;;;;20.40;69.87;100713.22;;;;-49
2021/09/20 12:37:41;;;;;;;3.88;3.58;;;;;;;20.42;69.97;100713.12;;;;-48
2021/09/20 12:40:41;;;;;;;5.43;3.61;;;;;;;20.43;69.96;100712.83;;;;-51
2021/09/20 12:43:41;;;;;;;4.46;3.82;;;;;;;20.44;70.02;100714.72;;;;-52
2021/09/20 12:46:41;;;;;;;4.37;3.41;;;;;;;20.45;70.04;100713.97;;;;-59
2021/09/20 12:49:40;;;;;;;5.37;3.61;;;;;;;20.47;70.05;100715.13;;;;-62
2021/09/20 12:52:44;;;;;;;3.71;3.39;;;;;;;20.47;70.12;100719.20;;;;-62
2021/09/20 12:55:41;;;;;;;4.92;3.49;;;;;;;20.46;70.10;100721.46;;;;-57
2021/09/20 12:58:46;;;;;;;3.60;3.30;;;;;;;20.46;70.04;100723.27;;;;-55
2021/09/20 13:01:41;;;;;;;6.43;3.72;;;;;;;20.46;70.07;100724.41;;;;-58
2021/09/20 13:04:40;;;;;;;4.87;3.42;;;;;;;20.46;70.10;100720.75;;;;-57
2021/09/20 13:07:41;;;;;;;6.59;3.80;;;;;;;20.47;69.97;100720.75;;;;-56
2021/09/20 13:10:46;;;;;;;7.43;3.72;;;;;;;20.45;69.95;100718.70;;;;-57
2021/09/20 13:13:42;;;;;;;5.47;3.55;;;;;;;20.45;69.94;100715.85;;;;-57
2021/09/20 13:16:41;;;;;;;5.19;3.61;;;;;;;20.44;69.93;100717.40;;;;-61
2021/09/20 13:19:41;;;;;;;4.57;3.60;;;;;;;20.45;69.95;100716.67;;;;-61
2021/09/20 13:22:41;;;;;;;5.12;3.80;;;;;;;20.44;69.97;100717.97;;;;-61
2021/09/20 13:25:41;;;;;;;5.43;3.47;;;;;;;20.44;69.95;100717.70;;;;-61
2021/09/20 13:28:41;;;;;;;5.17;3.60;;;;;;;20.44;69.90;100720.80;;;;-60
2021/09/20 13:31:41;;;;;;;3.80;3.49;;;;;;;20.44;69.90;100720.72;;;;-61
2021/09/20 13:34:40;;;;;;;4.52;3.49;;;;;;;20.44;69.91;100723.56;;;;-61
2021/09/20 13:37:41;;;;;;;4.51;3.55;;;;;;;20.43;69.92;100721.45;;;;-61
2021/09/20 13:40:41;;;;;;;5.22;3.56;;;;;;;20.44;69.91;100723.48;;;;-61
2021/09/20 13:43:41;;;;;;;4.83;3.47;;;;;;;20.44;69.90;100727.17;;;;-60
2021/09/20 13:46:41;;;;;;;3.94;3.24;;;;;;;20.44;69.93;100719.16;;;;-61
2021/09/20 13:49:42;;;;;;;3.98;3.38;;;;;;;20.44;69.90;100719.58;;;;-61
2021/09/20 13:52:41;;;;;;;4.53;3.43;;;;;;;20.43;69.91;100723.73;;;;-61
2021/09/20 13:55:41;;;;;;;3.85;3.25;;;;;;;20.44;69.92;100724.38;;;;-57
2021/09/20 13:58:41;;;;;;;5.75;3.51;;;;;;;20.43;69.88;100720.14;;;;-58
2021/09/20 14:01:41;;;;;;;4.49;3.40;;;;;;;20.43;69.91;100717.95;;;;-57
2021/09/20 14:04:40;;;;;;;3.89;3.49;;;;;;;20.43;69.92;100719.98;;;;-57
2021/09/20 14:07:41;;;;;;;4.28;3.41;;;;;;;20.43;69.87;100718.20;;;;-57
2021/09/20 14:10:41;;;;;;;3.59;3.20;;;;;;;20.43;69.93;100719.33;;;;-57
2021/09/20 14:13:41;;;;;;;3.70;3.25;;;;;;;20.43;69.94;100725.94;;;;-57
2021/09/20 14:16:41;;;;;;;3.45;3.15;;;;;;;20.43;69.94;100723.41;;;;-60
2021/09/20 14:19:40;;;;;;;4.52;3.29;;;;;;;20.43;69.91;100721.70;;;;-58
2021/09/20 14:22:41;;;;;;;4.99;3.47;;;;;;;20.42;70.07;100723.90;;;;-59
2021/09/20 14:25:40;;;;;;;4.33;3.51;;;;;;;20.44;70.04;100720.47;;;;-53
2021/09/20 14:28:46;;;;;;;3.46;3.16;;;;;;;20.45;70.00;100722.36;;;;-58
2021/09/20 14:31:41;;;;;;;3.85;3.25;;;;;;;20.46;70.07;100724.72;;;;-54
2021/09/20 14:34:41;;;;;;;4.09;3.20;;;;;;;20.47;70.14;100721.64;;;;-59
2021/09/20 14:37:41;;;;;;;3.52;3.19;;;;;;;20.47;70.25;100723.11;;;;-55
2021/09/20 14:40:41;;;;;;;6.19;3.27;;;;;;;20.48;70.26;100723.78;;;;-56
2021/09/20 14:43:41;;;;;;;5.19;3.35;;;;;;;20.50;70.24;100729.09;;;;-52
2021/09/20 14:46:41;;;;;;;3.89;3.45;;;;;;;20.50;70.14;100727.92;;;;-52
2021/09/20 14:49:40;;;;;;;6.02;3.28;;;;;;;20.51;70.10;100732.09;;;;-51
2021/09/20 14:52:42;;;;;;;4.50;3.16;;;;;;;20.52;70.13;100732.98;;;;-45
2021/09/20 14:55:41;;;;;;;9.14;3.79;;;;;;;20.54;70.12;100736.33;;;;-56
2021/09/20 14:58:41;;;;;;;7.49;3.74;;;;;;;20.55;70.18;100737.66;;;;-53
2021/09/20 15:01:41;;;;;;;5.99;3.57;;;;;;;20.56;70.18;100740.74;;;;-54
2021/09/20 15:04:40;;;;;;;6.24;3.75;;;;;;;20.56;70.28;100742.29;;;;-53
2021/09/20 15:07:41;;;;;;;6.23;3.68;;;;;;;20.55;70.33;100739.28;;;;-56
2021/09/20 15:10:40;;;;;;;6.27;3.66;;;;;;;20.54;70.25;100744.06;;;;-57
2021/09/20 15:13:41;;;;;;;6.90;3.72;;;;;;;20.55;70.16;100746.61;;;;-59
2021/09/20 15:16:41;;;;;;;8.15;3.95;;;;;;;20.57;70.18;100748.09;;;;-57
2021/09/20 15:19:40;;;;;;;5.75;3.83;;;;;;;20.58;70.09;100754.63;;;;-51
2021/09/20 15:22:41;;;;;;;4.75;3.75;;;;;;;20.58;70.04;100751.50;;;;-60
2021/09/20 15:25:43;;;;;;;5.26;3.80;;;;;;;20.59;70.05;100754.00;;;;-59
2021/09/20 15:28:41;;;;;;;7.74;4.05;;;;;;;20.59;70.08;100754.48;;;;-57
2021/09/20 15:31:41;;;;;;;7.25;3.94;;;;;;;20.61;70.03;100760.25;;;;-60
2021/09/20 15:34:40;;;;;;;5.61;3.92;;;;;;;20.61;69.94;100761.18;;;;-51
2021/09/20 15:37:41;;;;;;;7.97;4.26;;;;;;;20.63;70.00;100763.36;;;;-56
2021/09/20 15:40:41;;;;;;;9.91;3.84;;;;;;;20.62;69.96;100762.80;;;;-63
2021/09/20 15:43:41;;;;;;;6.36;4.35;;;;;;;20.64;69.99;100765.99;;;;-59
2021/09/20 15:46:41;;;;;;;6.63;3.98;;;;;;;20.64;69.97;100770.63;;;;-59
2021/09/20 15:49:41;;;;;;;5.53;3.95;;;;;;;20.65;70.00;100771.84;;;;-58
2021/09/20 15:52:41;;;;;;;6.58;3.99;;;;;;;20.65;69.96;100775.13;;;;-51
2021/09/20 15:55:40;;;;;;;7.09;3.79;;;;;;;20.66;70.00;100780.17;;;;-52
2021/09/20 15:58:41;;;;;;;5.85;3.85;;;;;;;20.66;69.94;100778.13;;;;-53
2021/09/20 16:01:41;;;;;;;7.95;3.95;;;;;;;20.67;69.85;100777.34;;;;-64
2021/09/20 16:04:41;;;;;;;7.08;4.15;;;;;;;20.67;69.90;100781.74;;;;-64
2021/09/20 16:07:41;;;;;;;5.18;4.28;;;;;;;20.66;69.85;100783.11;;;;-56
2021/09/20 16:10:41;;;;;;;6.21;3.88;;;;;;;20.65;69.79;100792.56;;;;-65
2021/09/20 16:13:41;;;;;;;5.21;4.19;;;;;;;20.65;69.83;100796.22;;;;-64
2021/09/20 16:16:41;;;;;;;4.97;4.06;;;;;;;20.64;69.84;100798.80;;;;-67
2021/09/20 16:19:41;;;;;;;6.29;4.06;;;;;;;20.64;69.78;100800.11;;;;-66
2021/09/20 16:22:41;;;;;;;6.81;3.91;;;;;;;20.63;69.82;100805.66;;;;-65
2021/09/20 16:25:40;;;;;;;4.63;4.05;;;;;;;20.63;69.77;100806.22;;;;-64
2021/09/20 16:28:41;;;;;;;6.03;3.93;;;;;;;20.62;69.82;100809.13;;;;-64
2021/09/20 16:31:41;;;;;;;6.54;3.92;;;;;;;20.61;69.79;100816.06;;;;-57
2021/09/20 16:34:41;;;;;;;4.49;3.77;;;;;;;20.62;69.80;100822.48;;;;-67
2021/09/20 16:37:41;;;;;;;4.31;3.89;;;;;;;20.61;69.83;100822.33;;;;-56
2021/09/20 16:40:40;;;;;;;5.28;3.81;;;;;;;20.61;69.81;100826.48;;;;-64
2021/09/20 16:43:41;;;;;;;4.07;3.67;;;;;;;20.60;69.78;100832.81;;;;-66
2021/09/20 16:46:40;;;;;;;5.85;3.75;;;;;;;20.60;69.83;100834.44;;;;-64
2021/09/20 16:49:41;;;;;;;4.57;3.91;;;;;;;20.60;69.78;100838.36;;;;-63